sensor_id;sensor_type;location;lat;lon;timestamp;P1;durP1;ratioP1;P2;durP2;ratioP2
9898;SDS011;4988;49.238;6.698;2023-03-01T00:00:11;22.67;;;10.53;;
9898;SDS011;4988;49.238;6.698;2023-03-01T00:02:37;20.00;;;10.43;;
9898;SDS011;4988;49.238;6.698;2023-03-01T00:05:02;21.77;;;10.33;;
9898;SDS011;4988;49.238;6.698;2023-03-01T00:07:28;25.92;;;10.63;;
9898;SDS011;4988;49.238;6.698;2023-03-01T00:09:53;22.27;;;10.67;;
9898;SDS011;4988;49.238;6.698;2023-03-01T00:12:19;21.90;;;11.07;;
9898;SDS011;4988;49.238;6.698;2023-03-01T00:14:45;26.17;;;10.90;;
9898;SDS011;4988;49.238;6.698;2023-03-01T00:17:10;23.07;;;10.53;;
9898;SDS011;4988;49.238;6.698;2023-03-01T00:19:36;21.93;;;10.40;;
9898;SDS011;4988;49.238;6.698;2023-03-01T00:22:01;23.07;;;10.20;;
9898;SDS011;4988;49.238;6.698;2023-03-01T00:24:27;18.83;;;9.67;;
9898;SDS011;4988;49.238;6.698;2023-03-01T00:26:52;19.90;;;10.60;;
9898;SDS011;4988;49.238;6.698;2023-03-01T00:29:20;19.98;;;9.85;;
9898;SDS011;4988;49.238;6.698;2023-03-01T00:31:46;20.63;;;10.30;;
9898;SDS011;4988;49.238;6.698;2023-03-01T00:34:11;21.00;;;9.47;;
9898;SDS011;4988;49.238;6.698;2023-03-01T00:36:37;19.30;;;9.60;;
9898;SDS011;4988;49.238;6.698;2023-03-01T00:39:04;20.55;;;10.02;;
9898;SDS011;4988;49.238;6.698;2023-03-01T00:41:31;22.92;;;10.23;;
9898;SDS011;4988;49.238;6.698;2023-03-01T00:43:56;19.70;;;9.50;;
9898;SDS011;4988;49.238;6.698;2023-03-01T00:46:22;21.20;;;9.40;;
9898;SDS011;4988;49.238;6.698;2023-03-01T00:48:49;17.70;;;9.25;;
9898;SDS011;4988;49.238;6.698;2023-03-01T00:51:25;17.87;;;9.57;;
9898;SDS011;4988;49.238;6.698;2023-03-01T00:53:52;17.50;;;9.43;;
9898;SDS011;4988;49.238;6.698;2023-03-01T00:56:20;17.85;;;9.13;;
9898;SDS011;4988;49.238;6.698;2023-03-01T00:58:45;17.60;;;8.93;;
9898;SDS011;4988;49.238;6.698;2023-03-01T01:01:12;19.23;;;9.67;;
9898;SDS011;4988;49.238;6.698;2023-03-01T01:06:14;17.85;;;8.50;;
9898;SDS011;4988;49.238;6.698;2023-03-01T01:08:44;17.25;;;8.85;;
9898;SDS011;4988;49.238;6.698;2023-03-01T01:11:10;16.80;;;9.53;;
9898;SDS011;4988;49.238;6.698;2023-03-01T01:13:37;19.90;;;9.85;;
9898;SDS011;4988;49.238;6.698;2023-03-01T01:16:03;16.40;;;9.30;;
9898;SDS011;4988;49.238;6.698;2023-03-01T01:18:29;20.67;;;9.73;;
9898;SDS011;4988;49.238;6.698;2023-03-01T01:20:54;19.20;;;9.57;;
9898;SDS011;4988;49.238;6.698;2023-03-01T01:23:19;19.43;;;10.03;;
9898;SDS011;4988;49.238;6.698;2023-03-01T01:25:45;19.87;;;10.03;;
9898;SDS011;4988;49.238;6.698;2023-03-01T01:28:10;20.60;;;9.77;;
9898;SDS011;4988;49.238;6.698;2023-03-01T01:30:35;21.00;;;10.20;;
9898;SDS011;4988;49.238;6.698;2023-03-01T01:33:00;20.43;;;10.23;;
9898;SDS011;4988;49.238;6.698;2023-03-01T01:35:26;18.17;;;9.90;;
9898;SDS011;4988;49.238;6.698;2023-03-01T01:37:52;19.60;;;10.18;;
9898;SDS011;4988;49.238;6.698;2023-03-01T01:40:17;19.17;;;9.17;;
9898;SDS011;4988;49.238;6.698;2023-03-01T01:42:43;20.57;;;9.87;;
9898;SDS011;4988;49.238;6.698;2023-03-01T01:47:58;20.85;;;10.90;;
9898;SDS011;4988;49.238;6.698;2023-03-01T01:50:28;23.55;;;10.57;;
9898;SDS011;4988;49.238;6.698;2023-03-01T01:53:02;23.02;;;11.10;;
9898;SDS011;4988;49.238;6.698;2023-03-01T01:55:29;20.77;;;10.25;;
9898;SDS011;4988;49.238;6.698;2023-03-01T01:57:56;21.93;;;11.20;;
9898;SDS011;4988;49.238;6.698;2023-03-01T02:00:25;22.70;;;11.07;;
9898;SDS011;4988;49.238;6.698;2023-03-01T02:02:56;23.10;;;10.73;;
9898;SDS011;4988;49.238;6.698;2023-03-01T02:05:47;22.58;;;10.75;;
9898;SDS011;4988;49.238;6.698;2023-03-01T02:08:15;20.80;;;11.00;;
9898;SDS011;4988;49.238;6.698;2023-03-01T02:10:43;20.15;;;10.13;;
9898;SDS011;4988;49.238;6.698;2023-03-01T02:13:10;21.50;;;10.68;;
9898;SDS011;4988;49.238;6.698;2023-03-01T02:15:36;24.23;;;10.85;;
9898;SDS011;4988;49.238;6.698;2023-03-01T02:18:04;20.55;;;10.50;;
9898;SDS011;4988;49.238;6.698;2023-03-01T02:22:55;20.43;;;11.60;;
9898;SDS011;4988;49.238;6.698;2023-03-01T02:25:30;21.27;;;10.83;;
9898;SDS011;4988;49.238;6.698;2023-03-01T02:30:43;19.00;;;10.30;;
9898;SDS011;4988;49.238;6.698;2023-03-01T02:33:31;22.27;;;11.07;;
9898;SDS011;4988;49.238;6.698;2023-03-01T02:35:57;22.15;;;11.25;;
9898;SDS011;4988;49.238;6.698;2023-03-01T02:38:24;21.38;;;10.27;;
9898;SDS011;4988;49.238;6.698;2023-03-01T02:40:50;23.30;;;10.30;;
9898;SDS011;4988;49.238;6.698;2023-03-01T02:43:16;22.13;;;10.80;;
9898;SDS011;4988;49.238;6.698;2023-03-01T02:45:48;23.27;;;10.25;;
9898;SDS011;4988;49.238;6.698;2023-03-01T02:48:15;19.85;;;10.15;;
9898;SDS011;4988;49.238;6.698;2023-03-01T02:51:02;21.43;;;10.27;;
9898;SDS011;4988;49.238;6.698;2023-03-01T02:56:26;21.00;;;9.70;;
9898;SDS011;4988;49.238;6.698;2023-03-01T02:58:52;24.67;;;10.20;;
9898;SDS011;4988;49.238;6.698;2023-03-01T03:01:18;19.33;;;9.90;;
9898;SDS011;4988;49.238;6.698;2023-03-01T03:03:45;19.38;;;10.48;;
9898;SDS011;4988;49.238;6.698;2023-03-01T03:06:10;21.10;;;11.03;;
9898;SDS011;4988;49.238;6.698;2023-03-01T03:08:36;21.20;;;10.20;;
9898;SDS011;4988;49.238;6.698;2023-03-01T03:11:01;23.17;;;10.93;;
9898;SDS011;4988;49.238;6.698;2023-03-01T03:13:27;19.57;;;10.23;;
9898;SDS011;4988;49.238;6.698;2023-03-01T03:15:53;23.13;;;10.50;;
9898;SDS011;4988;49.238;6.698;2023-03-01T03:18:20;20.98;;;10.40;;
9898;SDS011;4988;49.238;6.698;2023-03-01T03:20:47;21.63;;;9.80;;
9898;SDS011;4988;49.238;6.698;2023-03-01T03:23:17;19.63;;;9.77;;
9898;SDS011;4988;49.238;6.698;2023-03-01T03:25:42;22.23;;;10.10;;
9898;SDS011;4988;49.238;6.698;2023-03-01T03:28:08;21.27;;;10.23;;
9898;SDS011;4988;49.238;6.698;2023-03-01T03:30:37;19.30;;;10.35;;
9898;SDS011;4988;49.238;6.698;2023-03-01T03:33:04;21.42;;;10.68;;
9898;SDS011;4988;49.238;6.698;2023-03-01T03:35:31;24.13;;;11.52;;
9898;SDS011;4988;49.238;6.698;2023-03-01T03:37:59;20.17;;;10.80;;
9898;SDS011;4988;49.238;6.698;2023-03-01T03:43:04;21.75;;;10.02;;
9898;SDS011;4988;49.238;6.698;2023-03-01T03:45:31;22.15;;;10.60;;
9898;SDS011;4988;49.238;6.698;2023-03-01T03:47:58;20.48;;;10.82;;
9898;SDS011;4988;49.238;6.698;2023-03-01T03:50:24;20.20;;;10.48;;
9898;SDS011;4988;49.238;6.698;2023-03-01T03:52:49;22.50;;;10.70;;
9898;SDS011;4988;49.238;6.698;2023-03-01T03:55:15;22.13;;;10.57;;
9898;SDS011;4988;49.238;6.698;2023-03-01T03:57:44;22.20;;;10.88;;
9898;SDS011;4988;49.238;6.698;2023-03-01T04:00:17;22.63;;;10.38;;
9898;SDS011;4988;49.238;6.698;2023-03-01T04:02:44;20.08;;;10.38;;
9898;SDS011;4988;49.238;6.698;2023-03-01T04:05:11;20.92;;;11.02;;
9898;SDS011;4988;49.238;6.698;2023-03-01T04:07:38;20.63;;;10.80;;
9898;SDS011;4988;49.238;6.698;2023-03-01T04:10:04;21.93;;;11.20;;
9898;SDS011;4988;49.238;6.698;2023-03-01T04:12:31;24.27;;;11.10;;
9898;SDS011;4988;49.238;6.698;2023-03-01T04:14:59;24.10;;;12.20;;
9898;SDS011;4988;49.238;6.698;2023-03-01T04:17:25;27.00;;;12.38;;
9898;SDS011;4988;49.238;6.698;2023-03-01T04:19:50;25.57;;;11.40;;
9898;SDS011;4988;49.238;6.698;2023-03-01T04:22:15;25.67;;;12.33;;
9898;SDS011;4988;49.238;6.698;2023-03-01T04:24:42;26.13;;;12.70;;
9898;SDS011;4988;49.238;6.698;2023-03-01T04:27:08;28.17;;;12.18;;
9898;SDS011;4988;49.238;6.698;2023-03-01T04:29:33;26.53;;;11.63;;
9898;SDS011;4988;49.238;6.698;2023-03-01T04:31:59;26.00;;;12.67;;
9898;SDS011;4988;49.238;6.698;2023-03-01T04:34:24;24.13;;;11.53;;
9898;SDS011;4988;49.238;6.698;2023-03-01T04:36:51;26.98;;;11.82;;
9898;SDS011;4988;49.238;6.698;2023-03-01T04:39:17;24.87;;;12.53;;
9898;SDS011;4988;49.238;6.698;2023-03-01T04:41:42;21.77;;;10.90;;
9898;SDS011;4988;49.238;6.698;2023-03-01T04:44:08;25.60;;;11.80;;
9898;SDS011;4988;49.238;6.698;2023-03-01T04:46:34;22.83;;;11.70;;
9898;SDS011;4988;49.238;6.698;2023-03-01T04:48:59;28.03;;;12.33;;
9898;SDS011;4988;49.238;6.698;2023-03-01T04:51:24;24.87;;;11.30;;
9898;SDS011;4988;49.238;6.698;2023-03-01T04:53:50;23.33;;;11.37;;
9898;SDS011;4988;49.238;6.698;2023-03-01T04:56:15;21.20;;;11.27;;
9898;SDS011;4988;49.238;6.698;2023-03-01T04:58:43;24.95;;;11.82;;
9898;SDS011;4988;49.238;6.698;2023-03-01T05:01:12;23.42;;;11.48;;
9898;SDS011;4988;49.238;6.698;2023-03-01T05:03:44;26.58;;;11.40;;
9898;SDS011;4988;49.238;6.698;2023-03-01T05:06:11;23.48;;;10.70;;
9898;SDS011;4988;49.238;6.698;2023-03-01T05:08:37;24.70;;;11.20;;
9898;SDS011;4988;49.238;6.698;2023-03-01T05:11:04;24.92;;;11.05;;
9898;SDS011;4988;49.238;6.698;2023-03-01T05:13:30;22.77;;;11.30;;
9898;SDS011;4988;49.238;6.698;2023-03-01T05:15:57;27.17;;;12.52;;
9898;SDS011;4988;49.238;6.698;2023-03-01T05:18:24;25.42;;;12.05;;
9898;SDS011;4988;49.238;6.698;2023-03-01T05:20:51;24.67;;;11.10;;
9898;SDS011;4988;49.238;6.698;2023-03-01T05:23:17;24.23;;;11.32;;
9898;SDS011;4988;49.238;6.698;2023-03-01T05:25:43;26.33;;;11.53;;
9898;SDS011;4988;49.238;6.698;2023-03-01T05:28:12;26.23;;;11.30;;
9898;SDS011;4988;49.238;6.698;2023-03-01T05:30:37;22.92;;;11.52;;
9898;SDS011;4988;49.238;6.698;2023-03-01T05:33:06;26.75;;;12.23;;
9898;SDS011;4988;49.238;6.698;2023-03-01T05:35:38;24.02;;;11.45;;
9898;SDS011;4988;49.238;6.698;2023-03-01T05:38:04;25.75;;;11.38;;
9898;SDS011;4988;49.238;6.698;2023-03-01T05:40:29;26.03;;;12.33;;
9898;SDS011;4988;49.238;6.698;2023-03-01T05:42:55;27.53;;;12.50;;
9898;SDS011;4988;49.238;6.698;2023-03-01T05:45:23;24.42;;;11.85;;
9898;SDS011;4988;49.238;6.698;2023-03-01T05:47:50;30.05;;;12.88;;
9898;SDS011;4988;49.238;6.698;2023-03-01T05:50:20;28.42;;;12.25;;
9898;SDS011;4988;49.238;6.698;2023-03-01T05:52:48;26.92;;;12.63;;
9898;SDS011;4988;49.238;6.698;2023-03-01T05:55:34;27.50;;;12.93;;
9898;SDS011;4988;49.238;6.698;2023-03-01T05:58:01;30.38;;;12.60;;
9898;SDS011;4988;49.238;6.698;2023-03-01T06:00:29;27.08;;;12.10;;
9898;SDS011;4988;49.238;6.698;2023-03-01T06:02:55;29.08;;;13.40;;
9898;SDS011;4988;49.238;6.698;2023-03-01T06:05:22;27.20;;;13.23;;
9898;SDS011;4988;49.238;6.698;2023-03-01T06:07:48;28.27;;;13.43;;
9898;SDS011;4988;49.238;6.698;2023-03-01T06:10:14;28.15;;;12.43;;
9898;SDS011;4988;49.238;6.698;2023-03-01T06:12:41;26.97;;;13.03;;
9898;SDS011;4988;49.238;6.698;2023-03-01T06:15:09;28.35;;;13.70;;
9898;SDS011;4988;49.238;6.698;2023-03-01T06:17:36;27.70;;;12.93;;
9898;SDS011;4988;49.238;6.698;2023-03-01T06:20:07;28.33;;;13.10;;
9898;SDS011;4988;49.238;6.698;2023-03-01T06:22:37;27.58;;;13.13;;
9898;SDS011;4988;49.238;6.698;2023-03-01T06:25:03;30.70;;;13.53;;
9898;SDS011;4988;49.238;6.698;2023-03-01T06:27:30;31.73;;;12.82;;
9898;SDS011;4988;49.238;6.698;2023-03-01T06:29:55;30.67;;;13.57;;
9898;SDS011;4988;49.238;6.698;2023-03-01T06:32:20;28.73;;;12.87;;
9898;SDS011;4988;49.238;6.698;2023-03-01T06:34:46;29.73;;;12.33;;
9898;SDS011;4988;49.238;6.698;2023-03-01T06:37:11;29.03;;;12.53;;
9898;SDS011;4988;49.238;6.698;2023-03-01T06:39:36;28.57;;;13.07;;
9898;SDS011;4988;49.238;6.698;2023-03-01T06:42:02;44.80;;;16.93;;
9898;SDS011;4988;49.238;6.698;2023-03-01T06:44:27;50.63;;;19.67;;
9898;SDS011;4988;49.238;6.698;2023-03-01T06:46:53;33.87;;;15.27;;
9898;SDS011;4988;49.238;6.698;2023-03-01T06:49:18;31.43;;;14.23;;
9898;SDS011;4988;49.238;6.698;2023-03-01T06:51:44;30.92;;;14.13;;
9898;SDS011;4988;49.238;6.698;2023-03-01T06:54:11;28.60;;;13.95;;
9898;SDS011;4988;49.238;6.698;2023-03-01T06:56:36;28.20;;;12.90;;
9898;SDS011;4988;49.238;6.698;2023-03-01T06:59:02;29.37;;;13.37;;
9898;SDS011;4988;49.238;6.698;2023-03-01T07:01:30;28.75;;;13.75;;
9898;SDS011;4988;49.238;6.698;2023-03-01T07:03:56;29.88;;;12.65;;
9898;SDS011;4988;49.238;6.698;2023-03-01T07:06:22;31.33;;;14.57;;
9898;SDS011;4988;49.238;6.698;2023-03-01T07:08:47;32.63;;;14.37;;
9898;SDS011;4988;49.238;6.698;2023-03-01T07:11:13;31.37;;;13.10;;
9898;SDS011;4988;49.238;6.698;2023-03-01T07:13:39;32.10;;;14.18;;
9898;SDS011;4988;49.238;6.698;2023-03-01T07:16:04;33.03;;;14.13;;
9898;SDS011;4988;49.238;6.698;2023-03-01T07:18:30;31.67;;;13.97;;
9898;SDS011;4988;49.238;6.698;2023-03-01T07:20:55;38.87;;;16.17;;
9898;SDS011;4988;49.238;6.698;2023-03-01T07:23:20;35.70;;;15.37;;
9898;SDS011;4988;49.238;6.698;2023-03-01T07:25:52;30.87;;;14.53;;
9898;SDS011;4988;49.238;6.698;2023-03-01T07:28:18;34.67;;;14.45;;
9898;SDS011;4988;49.238;6.698;2023-03-01T07:30:44;33.90;;;14.57;;
9898;SDS011;4988;49.238;6.698;2023-03-01T07:33:09;34.13;;;15.07;;
9898;SDS011;4988;49.238;6.698;2023-03-01T07:35:35;35.27;;;14.53;;
9898;SDS011;4988;49.238;6.698;2023-03-01T07:38:00;34.83;;;14.10;;
9898;SDS011;4988;49.238;6.698;2023-03-01T07:40:25;37.07;;;15.10;;
9898;SDS011;4988;49.238;6.698;2023-03-01T07:42:54;34.47;;;15.03;;
9898;SDS011;4988;49.238;6.698;2023-03-01T07:45:23;36.20;;;14.98;;
9898;SDS011;4988;49.238;6.698;2023-03-01T07:47:50;36.40;;;15.30;;
9898;SDS011;4988;49.238;6.698;2023-03-01T07:50:16;37.83;;;14.48;;
9898;SDS011;4988;49.238;6.698;2023-03-01T07:52:41;34.10;;;14.67;;
9898;SDS011;4988;49.238;6.698;2023-03-01T07:55:07;32.10;;;14.30;;
9898;SDS011;4988;49.238;6.698;2023-03-01T07:57:32;33.53;;;14.67;;
9898;SDS011;4988;49.238;6.698;2023-03-01T07:59:57;32.03;;;13.97;;
9898;SDS011;4988;49.238;6.698;2023-03-01T08:02:23;36.23;;;15.10;;
9898;SDS011;4988;49.238;6.698;2023-03-01T08:04:48;33.70;;;15.33;;
9898;SDS011;4988;49.238;6.698;2023-03-01T08:07:13;31.70;;;14.30;;
9898;SDS011;4988;49.238;6.698;2023-03-01T08:09:39;33.33;;;14.83;;
9898;SDS011;4988;49.238;6.698;2023-03-01T08:12:04;33.37;;;13.83;;
9898;SDS011;4988;49.238;6.698;2023-03-01T08:14:31;33.20;;;14.18;;
9898;SDS011;4988;49.238;6.698;2023-03-01T08:16:57;33.60;;;13.95;;
9898;SDS011;4988;49.238;6.698;2023-03-01T08:19:22;34.50;;;14.50;;
9898;SDS011;4988;49.238;6.698;2023-03-01T08:21:47;29.77;;;13.60;;
9898;SDS011;4988;49.238;6.698;2023-03-01T08:24:13;34.93;;;14.80;;
9898;SDS011;4988;49.238;6.698;2023-03-01T08:26:38;28.30;;;13.53;;
9898;SDS011;4988;49.238;6.698;2023-03-01T08:29:04;34.33;;;14.03;;
9898;SDS011;4988;49.238;6.698;2023-03-01T08:31:31;33.30;;;14.13;;
9898;SDS011;4988;49.238;6.698;2023-03-01T08:34:02;31.00;;;13.70;;
9898;SDS011;4988;49.238;6.698;2023-03-01T08:36:31;36.47;;;14.63;;
9898;SDS011;4988;49.238;6.698;2023-03-01T08:38:58;32.00;;;13.65;;
9898;SDS011;4988;49.238;6.698;2023-03-01T08:41:24;32.73;;;14.27;;
9898;SDS011;4988;49.238;6.698;2023-03-01T08:43:50;32.73;;;14.90;;
9898;SDS011;4988;49.238;6.698;2023-03-01T08:46:16;36.20;;;13.90;;
9898;SDS011;4988;49.238;6.698;2023-03-01T08:48:41;34.57;;;14.67;;
9898;SDS011;4988;49.238;6.698;2023-03-01T08:51:13;32.22;;;14.38;;
9898;SDS011;4988;49.238;6.698;2023-03-01T08:53:40;36.10;;;14.65;;
9898;SDS011;4988;49.238;6.698;2023-03-01T08:56:06;39.50;;;16.10;;
9898;SDS011;4988;49.238;6.698;2023-03-01T08:58:33;33.87;;;14.70;;
9898;SDS011;4988;49.238;6.698;2023-03-01T09:00:59;32.35;;;14.27;;
9898;SDS011;4988;49.238;6.698;2023-03-01T09:03:25;36.93;;;14.57;;
9898;SDS011;4988;49.238;6.698;2023-03-01T09:05:51;29.33;;;14.20;;
9898;SDS011;4988;49.238;6.698;2023-03-01T09:08:17;33.30;;;14.23;;
9898;SDS011;4988;49.238;6.698;2023-03-01T09:10:43;34.00;;;14.17;;
9898;SDS011;4988;49.238;6.698;2023-03-01T09:13:09;30.93;;;13.23;;
9898;SDS011;4988;49.238;6.698;2023-03-01T09:15:36;33.13;;;14.53;;
9898;SDS011;4988;49.238;6.698;2023-03-01T09:18:02;29.40;;;14.17;;
9898;SDS011;4988;49.238;6.698;2023-03-01T09:20:29;33.13;;;14.47;;
9898;SDS011;4988;49.238;6.698;2023-03-01T09:22:56;32.17;;;14.53;;
9898;SDS011;4988;49.238;6.698;2023-03-01T09:25:21;33.43;;;14.40;;
9898;SDS011;4988;49.238;6.698;2023-03-01T09:27:47;33.13;;;14.67;;
9898;SDS011;4988;49.238;6.698;2023-03-01T09:30:16;32.87;;;14.20;;
9898;SDS011;4988;49.238;6.698;2023-03-01T09:32:42;34.30;;;14.93;;
9898;SDS011;4988;49.238;6.698;2023-03-01T09:35:09;34.40;;;14.77;;
9898;SDS011;4988;49.238;6.698;2023-03-01T09:37:35;35.33;;;14.77;;
9898;SDS011;4988;49.238;6.698;2023-03-01T09:40:03;33.43;;;15.10;;
9898;SDS011;4988;49.238;6.698;2023-03-01T09:42:45;32.93;;;14.83;;
9898;SDS011;4988;49.238;6.698;2023-03-01T09:45:26;34.13;;;14.63;;
9898;SDS011;4988;49.238;6.698;2023-03-01T09:47:58;35.23;;;14.73;;
9898;SDS011;4988;49.238;6.698;2023-03-01T09:50:24;32.83;;;15.00;;
9898;SDS011;4988;49.238;6.698;2023-03-01T09:53:03;35.07;;;15.43;;
9898;SDS011;4988;49.238;6.698;2023-03-01T09:58:36;36.10;;;14.77;;
9898;SDS011;4988;49.238;6.698;2023-03-01T10:04:09;31.37;;;13.37;;
9898;SDS011;4988;49.238;6.698;2023-03-01T10:06:48;39.67;;;15.30;;
9898;SDS011;4988;49.238;6.698;2023-03-01T10:09:33;36.27;;;16.17;;
9898;SDS011;4988;49.238;6.698;2023-03-01T10:12:00;36.90;;;16.13;;
9898;SDS011;4988;49.238;6.698;2023-03-01T10:14:32;33.50;;;15.33;;
9898;SDS011;4988;49.238;6.698;2023-03-01T10:19:46;33.43;;;14.87;;
9898;SDS011;4988;49.238;6.698;2023-03-01T10:22:16;38.00;;;15.97;;
9898;SDS011;4988;49.238;6.698;2023-03-01T10:24:48;33.43;;;16.03;;
9898;SDS011;4988;49.238;6.698;2023-03-01T10:27:17;33.30;;;15.50;;
9898;SDS011;4988;49.238;6.698;2023-03-01T10:30:16;34.10;;;14.53;;
9898;SDS011;4988;49.238;6.698;2023-03-01T10:32:43;32.10;;;14.77;;
9898;SDS011;4988;49.238;6.698;2023-03-01T10:35:19;31.30;;;14.60;;
9898;SDS011;4988;49.238;6.698;2023-03-01T10:37:57;32.80;;;15.23;;
9898;SDS011;4988;49.238;6.698;2023-03-01T10:40:33;33.33;;;15.30;;
9898;SDS011;4988;49.238;6.698;2023-03-01T10:43:03;35.70;;;15.73;;
9898;SDS011;4988;49.238;6.698;2023-03-01T10:45:34;34.57;;;14.67;;
9898;SDS011;4988;49.238;6.698;2023-03-01T10:50:33;31.77;;;14.33;;
9898;SDS011;4988;49.238;6.698;2023-03-01T10:53:02;30.87;;;14.13;;
9898;SDS011;4988;49.238;6.698;2023-03-01T10:55:39;32.43;;;14.63;;
9898;SDS011;4988;49.238;6.698;2023-03-01T10:58:14;36.67;;;15.20;;
9898;SDS011;4988;49.238;6.698;2023-03-01T11:00:57;32.03;;;15.57;;
9898;SDS011;4988;49.238;6.698;2023-03-01T11:03:29;37.47;;;15.47;;
9898;SDS011;4988;49.238;6.698;2023-03-01T11:08:51;32.47;;;15.40;;
9898;SDS011;4988;49.238;6.698;2023-03-01T11:13:54;34.80;;;15.63;;
9898;SDS011;4988;49.238;6.698;2023-03-01T11:19:04;34.40;;;15.57;;
9898;SDS011;4988;49.238;6.698;2023-03-01T11:24:13;30.07;;;14.23;;
9898;SDS011;4988;49.238;6.698;2023-03-01T11:26:42;31.63;;;15.10;;
9898;SDS011;4988;49.238;6.698;2023-03-01T11:29:25;32.60;;;15.40;;
9898;SDS011;4988;49.238;6.698;2023-03-01T11:31:56;35.47;;;15.00;;
9898;SDS011;4988;49.238;6.698;2023-03-01T11:34:32;32.23;;;15.73;;
9898;SDS011;4988;49.238;6.698;2023-03-01T11:37:12;33.00;;;15.47;;
9898;SDS011;4988;49.238;6.698;2023-03-01T11:43:15;32.10;;;15.20;;
9898;SDS011;4988;49.238;6.698;2023-03-01T11:57:53;34.60;;;15.63;;
9898;SDS011;4988;49.238;6.698;2023-03-01T12:06:06;34.20;;;14.97;;
9898;SDS011;4988;49.238;6.698;2023-03-01T12:16:57;33.70;;;15.33;;
9898;SDS011;4988;49.238;6.698;2023-03-01T12:25:27;33.80;;;14.80;;
9898;SDS011;4988;49.238;6.698;2023-03-01T12:33:32;33.53;;;14.43;;
9898;SDS011;4988;49.238;6.698;2023-03-01T12:36:39;32.00;;;14.97;;
9898;SDS011;4988;49.238;6.698;2023-03-01T12:50:52;33.83;;;14.97;;
9898;SDS011;4988;49.238;6.698;2023-03-01T12:56:05;35.73;;;17.00;;
9898;SDS011;4988;49.238;6.698;2023-03-01T13:01:40;34.53;;;16.07;;
9898;SDS011;4988;49.238;6.698;2023-03-01T13:17:46;29.10;;;14.40;;
9898;SDS011;4988;49.238;6.698;2023-03-01T13:20:13;35.00;;;16.47;;
9898;SDS011;4988;49.238;6.698;2023-03-01T13:22:41;32.97;;;16.17;;
9898;SDS011;4988;49.238;6.698;2023-03-01T13:25:16;41.77;;;16.70;;
9898;SDS011;4988;49.238;6.698;2023-03-01T13:27:44;35.70;;;15.73;;
9898;SDS011;4988;49.238;6.698;2023-03-01T13:35:52;31.33;;;15.10;;
9898;SDS011;4988;49.238;6.698;2023-03-01T13:41:16;35.27;;;15.77;;
9898;SDS011;4988;49.238;6.698;2023-03-01T13:44:02;34.70;;;15.00;;
9898;SDS011;4988;49.238;6.698;2023-03-01T13:46:52;36.17;;;15.97;;
9898;SDS011;4988;49.238;6.698;2023-03-01T13:49:35;36.43;;;16.37;;
9898;SDS011;4988;49.238;6.698;2023-03-01T13:52:13;33.70;;;15.60;;
9898;SDS011;4988;49.238;6.698;2023-03-01T13:54:47;33.43;;;16.17;;
9898;SDS011;4988;49.238;6.698;2023-03-01T13:57:12;31.53;;;14.03;;
9898;SDS011;4988;49.238;6.698;2023-03-01T13:59:47;28.93;;;13.50;;
9898;SDS011;4988;49.238;6.698;2023-03-01T14:02:12;28.23;;;14.30;;
9898;SDS011;4988;49.238;6.698;2023-03-01T14:04:38;27.93;;;14.10;;
9898;SDS011;4988;49.238;6.698;2023-03-01T14:07:18;28.30;;;14.63;;
9898;SDS011;4988;49.238;6.698;2023-03-01T14:09:53;27.10;;;13.70;;
9898;SDS011;4988;49.238;6.698;2023-03-01T14:12:38;31.40;;;14.40;;
9898;SDS011;4988;49.238;6.698;2023-03-01T14:15:16;29.83;;;14.20;;
9898;SDS011;4988;49.238;6.698;2023-03-01T14:20:20;28.70;;;13.50;;
9898;SDS011;4988;49.238;6.698;2023-03-01T14:22:47;30.50;;;13.90;;
9898;SDS011;4988;49.238;6.698;2023-03-01T14:25:21;27.53;;;13.17;;
9898;SDS011;4988;49.238;6.698;2023-03-01T14:27:55;30.63;;;14.13;;
9898;SDS011;4988;49.238;6.698;2023-03-01T14:30:27;30.00;;;13.60;;
9898;SDS011;4988;49.238;6.698;2023-03-01T14:33:01;26.23;;;13.40;;
9898;SDS011;4988;49.238;6.698;2023-03-01T14:35:33;27.87;;;13.27;;
9898;SDS011;4988;49.238;6.698;2023-03-01T14:38:00;30.13;;;13.80;;
9898;SDS011;4988;49.238;6.698;2023-03-01T14:42:57;32.13;;;15.23;;
9898;SDS011;4988;49.238;6.698;2023-03-01T14:45:25;32.03;;;14.87;;
9898;SDS011;4988;49.238;6.698;2023-03-01T14:47:52;30.60;;;14.13;;
9898;SDS011;4988;49.238;6.698;2023-03-01T14:50:24;28.80;;;13.67;;
9898;SDS011;4988;49.238;6.698;2023-03-01T14:52:52;29.07;;;13.97;;
9898;SDS011;4988;49.238;6.698;2023-03-01T14:55:21;27.53;;;13.50;;
9898;SDS011;4988;49.238;6.698;2023-03-01T14:58:12;28.13;;;13.47;;
9898;SDS011;4988;49.238;6.698;2023-03-01T15:00:40;27.27;;;13.13;;
9898;SDS011;4988;49.238;6.698;2023-03-01T15:03:17;26.70;;;13.67;;
9898;SDS011;4988;49.238;6.698;2023-03-01T15:05:49;31.43;;;13.87;;
9898;SDS011;4988;49.238;6.698;2023-03-01T15:08:17;30.33;;;13.93;;
9898;SDS011;4988;49.238;6.698;2023-03-01T15:10:56;28.90;;;13.70;;
9898;SDS011;4988;49.238;6.698;2023-03-01T15:13:24;29.20;;;14.83;;
9898;SDS011;4988;49.238;6.698;2023-03-01T15:15:51;30.17;;;13.93;;
9898;SDS011;4988;49.238;6.698;2023-03-01T15:18:26;25.93;;;13.67;;
9898;SDS011;4988;49.238;6.698;2023-03-01T15:20:54;27.73;;;14.23;;
9898;SDS011;4988;49.238;6.698;2023-03-01T15:23:27;27.60;;;14.60;;
9898;SDS011;4988;49.238;6.698;2023-03-01T15:25:54;33.30;;;14.37;;
9898;SDS011;4988;49.238;6.698;2023-03-01T15:28:25;27.17;;;13.37;;
9898;SDS011;4988;49.238;6.698;2023-03-01T15:30:57;28.43;;;14.83;;
9898;SDS011;4988;49.238;6.698;2023-03-01T15:35:58;26.63;;;14.03;;
9898;SDS011;4988;49.238;6.698;2023-03-01T15:38:29;25.77;;;13.50;;
9898;SDS011;4988;49.238;6.698;2023-03-01T15:40:56;26.53;;;13.20;;
9898;SDS011;4988;49.238;6.698;2023-03-01T15:43:38;30.97;;;14.10;;
9898;SDS011;4988;49.238;6.698;2023-03-01T15:46:04;26.53;;;13.37;;
9898;SDS011;4988;49.238;6.698;2023-03-01T15:48:29;25.27;;;12.90;;
9898;SDS011;4988;49.238;6.698;2023-03-01T15:50:56;28.97;;;13.67;;
9898;SDS011;4988;49.238;6.698;2023-03-01T15:53:23;27.97;;;13.93;;
9898;SDS011;4988;49.238;6.698;2023-03-01T15:55:49;28.80;;;13.93;;
9898;SDS011;4988;49.238;6.698;2023-03-01T16:00:40;34.03;;;13.30;;
9898;SDS011;4988;49.238;6.698;2023-03-01T16:03:06;26.47;;;13.03;;
9898;SDS011;4988;49.238;6.698;2023-03-01T16:05:34;31.93;;;12.70;;
9898;SDS011;4988;49.238;6.698;2023-03-01T16:08:01;29.80;;;13.90;;
9898;SDS011;4988;49.238;6.698;2023-03-01T16:10:27;27.53;;;13.30;;
9898;SDS011;4988;49.238;6.698;2023-03-01T16:12:53;28.53;;;13.90;;
9898;SDS011;4988;49.238;6.698;2023-03-01T16:15:20;27.00;;;12.37;;
9898;SDS011;4988;49.238;6.698;2023-03-01T16:17:49;26.67;;;13.50;;
9898;SDS011;4988;49.238;6.698;2023-03-01T16:20:14;27.80;;;13.27;;
9898;SDS011;4988;49.238;6.698;2023-03-01T16:22:43;27.83;;;13.37;;
9898;SDS011;4988;49.238;6.698;2023-03-01T16:25:10;27.77;;;12.60;;
9898;SDS011;4988;49.238;6.698;2023-03-01T16:27:37;25.70;;;12.43;;
9898;SDS011;4988;49.238;6.698;2023-03-01T16:30:04;25.17;;;12.73;;
9898;SDS011;4988;49.238;6.698;2023-03-01T16:32:31;26.90;;;12.57;;
9898;SDS011;4988;49.238;6.698;2023-03-01T16:34:57;26.43;;;12.63;;
9898;SDS011;4988;49.238;6.698;2023-03-01T16:37:22;24.17;;;12.00;;
9898;SDS011;4988;49.238;6.698;2023-03-01T16:39:47;22.50;;;11.77;;
9898;SDS011;4988;49.238;6.698;2023-03-01T16:42:15;25.63;;;12.13;;
9898;SDS011;4988;49.238;6.698;2023-03-01T16:44:41;23.67;;;11.70;;
9898;SDS011;4988;49.238;6.698;2023-03-01T16:47:06;22.37;;;10.97;;
9898;SDS011;4988;49.238;6.698;2023-03-01T16:49:32;20.60;;;10.90;;
9898;SDS011;4988;49.238;6.698;2023-03-01T16:51:57;25.97;;;12.30;;
9898;SDS011;4988;49.238;6.698;2023-03-01T16:54:24;25.67;;;11.27;;
9898;SDS011;4988;49.238;6.698;2023-03-01T16:56:49;25.37;;;12.10;;
9898;SDS011;4988;49.238;6.698;2023-03-01T16:59:14;24.03;;;11.87;;
9898;SDS011;4988;49.238;6.698;2023-03-01T17:01:40;25.27;;;11.97;;
9898;SDS011;4988;49.238;6.698;2023-03-01T17:04:06;25.43;;;11.13;;